sensor_id;sensor_type;location;lat;lon;timestamp;P1;durP1;ratioP1;P2;durP2;ratioP2
8580;SDS011;4328;48.622;9.230;2024-02-14T00:02:25;116.80;;;104.13;;
8580;SDS011;4328;48.622;9.230;2024-02-14T00:04:52;120.67;;;107.27;;
8580;SDS011;4328;48.622;9.230;2024-02-14T00:07:19;117.23;;;98.53;;
8580;SDS011;4328;48.622;9.230;2024-02-14T00:09:45;139.93;;;108.23;;
8580;SDS011;4328;48.622;9.230;2024-02-14T00:12:12;121.93;;;98.23;;
8580;SDS011;4328;48.622;9.230;2024-02-14T00:14:38;135.87;;;97.43;;
8580;SDS011;4328;48.622;9.230;2024-02-14T00:17:07;137.83;;;91.70;;
8580;SDS011;4328;48.622;9.230;2024-02-14T00:19:35;166.17;;;98.43;;
8580;SDS011;4328;48.622;9.230;2024-02-14T00:22:01;164.07;;;96.27;;
8580;SDS011;4328;48.622;9.230;2024-02-14T00:24:28;175.97;;;94.63;;
8580;SDS011;4328;48.622;9.230;2024-02-14T00:26:55;168.80;;;96.17;;
8580;SDS011;4328;48.622;9.230;2024-02-14T00:29:21;176.33;;;104.47;;
8580;SDS011;4328;48.622;9.230;2024-02-14T00:31:49;175.40;;;106.40;;
8580;SDS011;4328;48.622;9.230;2024-02-14T00:34:17;197.17;;;109.47;;
8580;SDS011;4328;48.622;9.230;2024-02-14T00:36:43;173.87;;;103.03;;
8580;SDS011;4328;48.622;9.230;2024-02-14T00:39:10;202.53;;;103.73;;
8580;SDS011;4328;48.622;9.230;2024-02-14T00:41:36;177.47;;;101.43;;
8580;SDS011;4328;48.622;9.230;2024-02-14T00:44:03;187.00;;;102.00;;
8580;SDS011;4328;48.622;9.230;2024-02-14T00:46:30;152.07;;;107.73;;
8580;SDS011;4328;48.622;9.230;2024-02-14T00:48:56;172.40;;;101.63;;
8580;SDS011;4328;48.622;9.230;2024-02-14T00:51:25;150.83;;;112.93;;
8580;SDS011;4328;48.622;9.230;2024-02-14T00:53:52;104.40;;;92.60;;
8580;SDS011;4328;48.622;9.230;2024-02-14T00:56:19;103.37;;;92.07;;
8580;SDS011;4328;48.622;9.230;2024-02-14T00:58:45;104.17;;;91.17;;
8580;SDS011;4328;48.622;9.230;2024-02-14T01:01:12;103.33;;;91.23;;
8580;SDS011;4328;48.622;9.230;2024-02-14T01:03:38;92.03;;;82.10;;
8580;SDS011;4328;48.622;9.230;2024-02-14T01:06:05;109.37;;;97.43;;
8580;SDS011;4328;48.622;9.230;2024-02-14T01:08:33;100.27;;;89.27;;
8580;SDS011;4328;48.622;9.230;2024-02-14T01:11:01;98.83;;;82.90;;
8580;SDS011;4328;48.622;9.230;2024-02-14T01:13:27;99.17;;;88.57;;
8580;SDS011;4328;48.622;9.230;2024-02-14T01:15:54;94.67;;;85.50;;
8580;SDS011;4328;48.622;9.230;2024-02-14T01:18:21;78.40;;;70.47;;
8580;SDS011;4328;48.622;9.230;2024-02-14T01:20:47;83.53;;;75.47;;
8580;SDS011;4328;48.622;9.230;2024-02-14T01:23:14;92.97;;;84.70;;
8580;SDS011;4328;48.622;9.230;2024-02-14T01:25:42;92.23;;;83.27;;
8580;SDS011;4328;48.622;9.230;2024-02-14T01:28:08;90.17;;;81.50;;
8580;SDS011;4328;48.622;9.230;2024-02-14T01:30:35;87.93;;;79.50;;
8580;SDS011;4328;48.622;9.230;2024-02-14T01:33:02;97.30;;;88.03;;
8580;SDS011;4328;48.622;9.230;2024-02-14T01:35:29;89.83;;;80.37;;
8580;SDS011;4328;48.622;9.230;2024-02-14T01:37:56;92.83;;;83.83;;
8580;SDS011;4328;48.622;9.230;2024-02-14T01:40:22;90.20;;;80.77;;
8580;SDS011;4328;48.622;9.230;2024-02-14T01:42:51;79.77;;;73.07;;
8580;SDS011;4328;48.622;9.230;2024-02-14T01:45:17;77.20;;;69.97;;
8580;SDS011;4328;48.622;9.230;2024-02-14T01:47:44;79.13;;;72.77;;
8580;SDS011;4328;48.622;9.230;2024-02-14T01:50:11;72.90;;;65.97;;
8580;SDS011;4328;48.622;9.230;2024-02-14T01:52:38;68.80;;;63.43;;
8580;SDS011;4328;48.622;9.230;2024-02-14T01:55:06;69.47;;;63.43;;
8580;SDS011;4328;48.622;9.230;2024-02-14T01:57:34;74.40;;;68.50;;
8580;SDS011;4328;48.622;9.230;2024-02-14T02:00:03;81.90;;;74.77;;
8580;SDS011;4328;48.622;9.230;2024-02-14T02:02:33;74.00;;;68.33;;
8580;SDS011;4328;48.622;9.230;2024-02-14T02:05:01;66.10;;;60.40;;
8580;SDS011;4328;48.622;9.230;2024-02-14T02:07:28;64.40;;;58.83;;
8580;SDS011;4328;48.622;9.230;2024-02-14T02:09:55;59.10;;;54.07;;
8580;SDS011;4328;48.622;9.230;2024-02-14T02:12:21;56.80;;;51.97;;
8580;SDS011;4328;48.622;9.230;2024-02-14T02:14:50;63.93;;;58.37;;
8580;SDS011;4328;48.622;9.230;2024-02-14T02:17:18;54.73;;;49.97;;
8580;SDS011;4328;48.622;9.230;2024-02-14T02:19:45;55.80;;;51.10;;
8580;SDS011;4328;48.622;9.230;2024-02-14T02:22:12;57.97;;;52.67;;
8580;SDS011;4328;48.622;9.230;2024-02-14T02:24:40;57.97;;;53.33;;
8580;SDS011;4328;48.622;9.230;2024-02-14T02:27:06;61.57;;;55.83;;
8580;SDS011;4328;48.622;9.230;2024-02-14T02:29:34;63.73;;;58.37;;
8580;SDS011;4328;48.622;9.230;2024-02-14T02:32:03;65.50;;;59.30;;
8580;SDS011;4328;48.622;9.230;2024-02-14T02:34:31;68.67;;;62.47;;
8580;SDS011;4328;48.622;9.230;2024-02-14T02:36:58;77.37;;;70.77;;
8580;SDS011;4328;48.622;9.230;2024-02-14T02:39:24;69.13;;;63.33;;
8580;SDS011;4328;48.622;9.230;2024-02-14T02:41:52;66.70;;;61.30;;
8580;SDS011;4328;48.622;9.230;2024-02-14T02:44:22;71.07;;;65.30;;
8580;SDS011;4328;48.622;9.230;2024-02-14T02:46:48;84.10;;;76.53;;
8580;SDS011;4328;48.622;9.230;2024-02-14T02:49:15;83.23;;;75.60;;
8580;SDS011;4328;48.622;9.230;2024-02-14T02:51:41;85.93;;;77.87;;
8580;SDS011;4328;48.622;9.230;2024-02-14T02:54:08;83.93;;;76.30;;
8580;SDS011;4328;48.622;9.230;2024-02-14T02:56:36;69.37;;;62.83;;
8580;SDS011;4328;48.622;9.230;2024-02-14T02:59:04;64.97;;;59.47;;
8580;SDS011;4328;48.622;9.230;2024-02-14T03:01:34;65.57;;;60.17;;
8580;SDS011;4328;48.622;9.230;2024-02-14T03:04:01;66.23;;;60.13;;
8580;SDS011;4328;48.622;9.230;2024-02-14T03:06:28;73.00;;;66.60;;
8580;SDS011;4328;48.622;9.230;2024-02-14T03:08:55;67.10;;;61.63;;
8580;SDS011;4328;48.622;9.230;2024-02-14T03:11:22;53.70;;;49.10;;
8580;SDS011;4328;48.622;9.230;2024-02-14T03:13:50;63.03;;;57.83;;
8580;SDS011;4328;48.622;9.230;2024-02-14T03:16:18;56.60;;;51.87;;
8580;SDS011;4328;48.622;9.230;2024-02-14T03:18:44;62.53;;;56.93;;
8580;SDS011;4328;48.622;9.230;2024-02-14T03:21:11;77.93;;;70.53;;
8580;SDS011;4328;48.622;9.230;2024-02-14T03:23:37;71.77;;;65.87;;
8580;SDS011;4328;48.622;9.230;2024-02-14T03:26:04;82.67;;;74.97;;
8580;SDS011;4328;48.622;9.230;2024-02-14T03:28:32;73.27;;;66.50;;
8580;SDS011;4328;48.622;9.230;2024-02-14T03:30:59;78.03;;;70.60;;
8580;SDS011;4328;48.622;9.230;2024-02-14T03:33:27;80.10;;;72.63;;
8580;SDS011;4328;48.622;9.230;2024-02-14T03:35:54;76.20;;;69.07;;
8580;SDS011;4328;48.622;9.230;2024-02-14T03:38:26;74.87;;;67.53;;
8580;SDS011;4328;48.622;9.230;2024-02-14T03:40:53;82.77;;;74.37;;
8580;SDS011;4328;48.622;9.230;2024-02-14T03:43:20;72.53;;;65.23;;
8580;SDS011;4328;48.622;9.230;2024-02-14T03:45:48;81.57;;;74.03;;
8580;SDS011;4328;48.622;9.230;2024-02-14T03:48:15;78.63;;;71.67;;
8580;SDS011;4328;48.622;9.230;2024-02-14T03:50:44;76.17;;;69.33;;
8580;SDS011;4328;48.622;9.230;2024-02-14T03:53:10;88.27;;;80.33;;
8580;SDS011;4328;48.622;9.230;2024-02-14T03:55:37;70.93;;;64.10;;
8580;SDS011;4328;48.622;9.230;2024-02-14T03:58:04;63.87;;;58.20;;
8580;SDS011;4328;48.622;9.230;2024-02-14T04:00:33;62.33;;;56.73;;
8580;SDS011;4328;48.622;9.230;2024-02-14T04:03:00;56.00;;;51.27;;
8580;SDS011;4328;48.622;9.230;2024-02-14T04:05:27;54.07;;;50.43;;
8580;SDS011;4328;48.622;9.230;2024-02-14T04:07:55;57.77;;;53.17;;
8580;SDS011;4328;48.622;9.230;2024-02-14T04:10:22;84.30;;;76.17;;
8580;SDS011;4328;48.622;9.230;2024-02-14T04:12:49;64.47;;;59.30;;
8580;SDS011;4328;48.622;9.230;2024-02-14T04:15:15;81.10;;;73.90;;
8580;SDS011;4328;48.622;9.230;2024-02-14T04:17:42;85.07;;;76.50;;
8580;SDS011;4328;48.622;9.230;2024-02-14T04:20:09;95.33;;;86.20;;
8580;SDS011;4328;48.622;9.230;2024-02-14T04:22:36;89.70;;;81.70;;
8580;SDS011;4328;48.622;9.230;2024-02-14T04:25:04;82.90;;;75.67;;
8580;SDS011;4328;48.622;9.230;2024-02-14T04:27:33;70.83;;;64.33;;
8580;SDS011;4328;48.622;9.230;2024-02-14T04:30:00;115.13;;;99.43;;
8580;SDS011;4328;48.622;9.230;2024-02-14T04:32:27;95.47;;;85.87;;
8580;SDS011;4328;48.622;9.230;2024-02-14T04:34:53;119.93;;;100.10;;
8580;SDS011;4328;48.622;9.230;2024-02-14T04:37:20;133.63;;;103.63;;
8580;SDS011;4328;48.622;9.230;2024-02-14T04:39:47;142.03;;;102.90;;
8580;SDS011;4328;48.622;9.230;2024-02-14T04:42:15;143.23;;;110.27;;
8580;SDS011;4328;48.622;9.230;2024-02-14T04:44:41;147.27;;;101.87;;
8580;SDS011;4328;48.622;9.230;2024-02-14T04:47:08;164.93;;;105.53;;
8580;SDS011;4328;48.622;9.230;2024-02-14T04:49:35;170.83;;;101.60;;
8580;SDS011;4328;48.622;9.230;2024-02-14T04:52:02;185.20;;;104.27;;
8580;SDS011;4328;48.622;9.230;2024-02-14T04:54:29;188.37;;;102.87;;
8580;SDS011;4328;48.622;9.230;2024-02-14T04:56:56;196.27;;;106.23;;
8580;SDS011;4328;48.622;9.230;2024-02-14T04:59:24;192.57;;;107.67;;
8580;SDS011;4328;48.622;9.230;2024-02-14T05:01:51;186.43;;;109.10;;
8580;SDS011;4328;48.622;9.230;2024-02-14T05:04:19;201.70;;;109.83;;
8580;SDS011;4328;48.622;9.230;2024-02-14T05:06:45;209.53;;;108.57;;
8580;SDS011;4328;48.622;9.230;2024-02-14T05:09:12;204.07;;;102.13;;
8580;SDS011;4328;48.622;9.230;2024-02-14T05:11:40;190.47;;;106.67;;
8580;SDS011;4328;48.622;9.230;2024-02-14T05:14:06;212.00;;;111.70;;
8580;SDS011;4328;48.622;9.230;2024-02-14T05:16:34;218.30;;;108.77;;
8580;SDS011;4328;48.622;9.230;2024-02-14T05:19:01;221.50;;;115.07;;
8580;SDS011;4328;48.622;9.230;2024-02-14T05:21:28;221.63;;;109.87;;
8580;SDS011;4328;48.622;9.230;2024-02-14T05:23:55;230.93;;;107.57;;
8580;SDS011;4328;48.622;9.230;2024-02-14T05:26:21;227.27;;;111.10;;
8580;SDS011;4328;48.622;9.230;2024-02-14T05:28:48;233.80;;;115.73;;
8580;SDS011;4328;48.622;9.230;2024-02-14T05:31:14;223.83;;;115.17;;
8580;SDS011;4328;48.622;9.230;2024-02-14T05:33:42;234.20;;;115.17;;
8580;SDS011;4328;48.622;9.230;2024-02-14T05:36:09;241.90;;;114.20;;
8580;SDS011;4328;48.622;9.230;2024-02-14T05:38:35;240.40;;;114.90;;
8580;SDS011;4328;48.622;9.230;2024-02-14T05:41:02;250.10;;;114.23;;
8580;SDS011;4328;48.622;9.230;2024-02-14T05:43:29;243.93;;;112.90;;
8580;SDS011;4328;48.622;9.230;2024-02-14T05:45:55;247.90;;;119.07;;
8580;SDS011;4328;48.622;9.230;2024-02-14T05:48:22;250.13;;;110.40;;
8580;SDS011;4328;48.622;9.230;2024-02-14T05:50:50;252.50;;;117.50;;
8580;SDS011;4328;48.622;9.230;2024-02-14T05:53:16;235.33;;;111.00;;
8580;SDS011;4328;48.622;9.230;2024-02-14T05:55:43;256.20;;;114.00;;
8580;SDS011;4328;48.622;9.230;2024-02-14T05:58:10;263.17;;;123.53;;
8580;SDS011;4328;48.622;9.230;2024-02-14T06:00:38;254.97;;;115.00;;
8580;SDS011;4328;48.622;9.230;2024-02-14T06:03:04;269.13;;;126.23;;
8580;SDS011;4328;48.622;9.230;2024-02-14T06:05:32;262.63;;;120.50;;
8580;SDS011;4328;48.622;9.230;2024-02-14T06:07:59;261.27;;;109.07;;
8580;SDS011;4328;48.622;9.230;2024-02-14T06:10:28;269.87;;;124.30;;
8580;SDS011;4328;48.622;9.230;2024-02-14T06:12:54;265.70;;;112.97;;
8580;SDS011;4328;48.622;9.230;2024-02-14T06:15:21;262.23;;;107.40;;
8580;SDS011;4328;48.622;9.230;2024-02-14T06:17:48;267.53;;;108.70;;
8580;SDS011;4328;48.622;9.230;2024-02-14T06:20:15;290.93;;;114.43;;
8580;SDS011;4328;48.622;9.230;2024-02-14T06:22:41;289.17;;;109.57;;
8580;SDS011;4328;48.622;9.230;2024-02-14T06:25:09;276.03;;;110.93;;
8580;SDS011;4328;48.622;9.230;2024-02-14T06:27:36;286.73;;;114.00;;
8580;SDS011;4328;48.622;9.230;2024-02-14T06:30:02;283.10;;;109.83;;
8580;SDS011;4328;48.622;9.230;2024-02-14T06:32:29;289.03;;;113.53;;
8580;SDS011;4328;48.622;9.230;2024-02-14T06:34:56;290.17;;;114.57;;
8580;SDS011;4328;48.622;9.230;2024-02-14T06:37:22;287.63;;;118.20;;
8580;SDS011;4328;48.622;9.230;2024-02-14T06:39:49;295.27;;;113.37;;
8580;SDS011;4328;48.622;9.230;2024-02-14T06:42:17;289.73;;;110.53;;
8580;SDS011;4328;48.622;9.230;2024-02-14T06:44:44;295.63;;;114.17;;
8580;SDS011;4328;48.622;9.230;2024-02-14T06:47:11;305.30;;;117.40;;
8580;SDS011;4328;48.622;9.230;2024-02-14T06:49:37;311.67;;;124.03;;
8580;SDS011;4328;48.622;9.230;2024-02-14T06:52:04;309.87;;;121.10;;
8580;SDS011;4328;48.622;9.230;2024-02-14T06:54:31;337.43;;;115.90;;
8580;SDS011;4328;48.622;9.230;2024-02-14T06:56:58;350.87;;;133.13;;
8580;SDS011;4328;48.622;9.230;2024-02-14T06:59:26;347.17;;;128.63;;
8580;SDS011;4328;48.622;9.230;2024-02-14T07:01:53;344.33;;;119.47;;
8580;SDS011;4328;48.622;9.230;2024-02-14T07:04:20;353.83;;;134.00;;
8580;SDS011;4328;48.622;9.230;2024-02-14T07:06:50;357.07;;;138.57;;
8580;SDS011;4328;48.622;9.230;2024-02-14T07:09:17;344.83;;;134.77;;
8580;SDS011;4328;48.622;9.230;2024-02-14T07:11:43;344.03;;;132.70;;
8580;SDS011;4328;48.622;9.230;2024-02-14T07:14:11;345.07;;;136.27;;
8580;SDS011;4328;48.622;9.230;2024-02-14T07:16:39;353.63;;;137.23;;
8580;SDS011;4328;48.622;9.230;2024-02-14T07:19:06;360.00;;;138.27;;
8580;SDS011;4328;48.622;9.230;2024-02-14T07:21:32;360.47;;;144.67;;
8580;SDS011;4328;48.622;9.230;2024-02-14T07:23:59;362.77;;;136.97;;
8580;SDS011;4328;48.622;9.230;2024-02-14T07:26:26;347.40;;;130.60;;
8580;SDS011;4328;48.622;9.230;2024-02-14T07:28:52;350.17;;;126.63;;
8580;SDS011;4328;48.622;9.230;2024-02-14T07:31:19;335.97;;;133.53;;
8580;SDS011;4328;48.622;9.230;2024-02-14T07:33:47;339.93;;;139.70;;
8580;SDS011;4328;48.622;9.230;2024-02-14T07:36:18;356.87;;;146.83;;
8580;SDS011;4328;48.622;9.230;2024-02-14T07:38:45;359.50;;;149.70;;
8580;SDS011;4328;48.622;9.230;2024-02-14T07:41:11;367.30;;;149.20;;
8580;SDS011;4328;48.622;9.230;2024-02-14T07:43:38;364.43;;;161.53;;
8580;SDS011;4328;48.622;9.230;2024-02-14T07:46:04;365.07;;;146.00;;
8580;SDS011;4328;48.622;9.230;2024-02-14T07:48:32;372.53;;;150.93;;
8580;SDS011;4328;48.622;9.230;2024-02-14T07:51:00;369.30;;;145.07;;
8580;SDS011;4328;48.622;9.230;2024-02-14T07:53:27;361.60;;;145.90;;
8580;SDS011;4328;48.622;9.230;2024-02-14T07:55:53;367.97;;;158.00;;
8580;SDS011;4328;48.622;9.230;2024-02-14T07:58:20;363.13;;;159.07;;
8580;SDS011;4328;48.622;9.230;2024-02-14T08:00:47;369.80;;;156.30;;
8580;SDS011;4328;48.622;9.230;2024-02-14T08:03:13;366.27;;;154.30;;
8580;SDS011;4328;48.622;9.230;2024-02-14T08:05:40;374.17;;;154.63;;
8580;SDS011;4328;48.622;9.230;2024-02-14T08:08:09;382.43;;;159.43;;
8580;SDS011;4328;48.622;9.230;2024-02-14T08:10:35;379.83;;;170.67;;
8580;SDS011;4328;48.622;9.230;2024-02-14T08:13:02;386.43;;;173.57;;
8580;SDS011;4328;48.622;9.230;2024-02-14T08:15:33;391.20;;;173.00;;
8580;SDS011;4328;48.622;9.230;2024-02-14T08:17:59;395.67;;;177.40;;
8580;SDS011;4328;48.622;9.230;2024-02-14T08:20:26;398.17;;;185.33;;
8580;SDS011;4328;48.622;9.230;2024-02-14T08:22:52;390.53;;;180.37;;
8580;SDS011;4328;48.622;9.230;2024-02-14T08:25:20;389.20;;;191.27;;
8580;SDS011;4328;48.622;9.230;2024-02-14T08:27:47;379.97;;;191.30;;
8580;SDS011;4328;48.622;9.230;2024-02-14T08:30:13;395.13;;;189.50;;
8580;SDS011;4328;48.622;9.230;2024-02-14T08:32:40;344.73;;;190.00;;
8580;SDS011;4328;48.622;9.230;2024-02-14T08:35:07;336.47;;;191.33;;
8580;SDS011;4328;48.622;9.230;2024-02-14T08:37:35;367.20;;;197.30;;
8580;SDS011;4328;48.622;9.230;2024-02-14T08:40:03;379.27;;;211.17;;
8580;SDS011;4328;48.622;9.230;2024-02-14T08:42:33;395.10;;;215.53;;
8580;SDS011;4328;48.622;9.230;2024-02-14T08:44:59;398.20;;;216.80;;
8580;SDS011;4328;48.622;9.230;2024-02-14T08:47:26;403.80;;;216.63;;
8580;SDS011;4328;48.622;9.230;2024-02-14T08:49:52;407.73;;;227.60;;
8580;SDS011;4328;48.622;9.230;2024-02-14T08:52:19;417.50;;;250.47;;
8580;SDS011;4328;48.622;9.230;2024-02-14T08:54:46;408.73;;;242.67;;
8580;SDS011;4328;48.622;9.230;2024-02-14T08:57:12;416.93;;;268.63;;
8580;SDS011;4328;48.622;9.230;2024-02-14T08:59:40;372.80;;;254.30;;
8580;SDS011;4328;48.622;9.230;2024-02-14T09:02:09;398.80;;;272.57;;
8580;SDS011;4328;48.622;9.230;2024-02-14T09:04:35;432.93;;;288.57;;
8580;SDS011;4328;48.622;9.230;2024-02-14T09:07:02;434.17;;;282.27;;
8580;SDS011;4328;48.622;9.230;2024-02-14T09:09:29;419.53;;;266.57;;
8580;SDS011;4328;48.622;9.230;2024-02-14T09:11:56;424.17;;;289.17;;
8580;SDS011;4328;48.622;9.230;2024-02-14T09:14:22;418.67;;;281.80;;
8580;SDS011;4328;48.622;9.230;2024-02-14T09:16:50;410.83;;;273.50;;
8580;SDS011;4328;48.622;9.230;2024-02-14T09:19:17;417.57;;;268.73;;
8580;SDS011;4328;48.622;9.230;2024-02-14T09:21:44;415.40;;;261.90;;
8580;SDS011;4328;48.622;9.230;2024-02-14T09:24:10;414.07;;;280.17;;
8580;SDS011;4328;48.622;9.230;2024-02-14T09:26:38;412.20;;;268.90;;
8580;SDS011;4328;48.622;9.230;2024-02-14T09:29:05;415.03;;;262.47;;
8580;SDS011;4328;48.622;9.230;2024-02-14T09:31:31;428.70;;;278.23;;
8580;SDS011;4328;48.622;9.230;2024-02-14T09:33:59;434.63;;;280.67;;
8580;SDS011;4328;48.622;9.230;2024-02-14T09:36:26;366.00;;;290.73;;
8580;SDS011;4328;48.622;9.230;2024-02-14T09:38:54;331.03;;;296.60;;
8580;SDS011;4328;48.622;9.230;2024-02-14T09:41:21;385.33;;;350.67;;
8580;SDS011;4328;48.622;9.230;2024-02-14T09:43:51;438.13;;;404.60;;
8580;SDS011;4328;48.622;9.230;2024-02-14T09:46:18;522.63;;;486.07;;
8580;SDS011;4328;48.622;9.230;2024-02-14T09:48:45;621.93;;;580.20;;
8580;SDS011;4328;48.622;9.230;2024-02-14T09:51:13;657.17;;;616.30;;
8580;SDS011;4328;48.622;9.230;2024-02-14T09:53:40;686.97;;;646.33;;
8580;SDS011;4328;48.622;9.230;2024-02-14T09:56:08;680.47;;;640.07;;
8580;SDS011;4328;48.622;9.230;2024-02-14T09:58:36;673.03;;;633.83;;
8580;SDS011;4328;48.622;9.230;2024-02-14T10:01:03;724.67;;;682.97;;
8580;SDS011;4328;48.622;9.230;2024-02-14T10:03:31;729.00;;;687.20;;
8580;SDS011;4328;48.622;9.230;2024-02-14T10:05:58;671.90;;;634.03;;
8580;SDS011;4328;48.622;9.230;2024-02-14T10:08:26;686.37;;;647.67;;
8580;SDS011;4328;48.622;9.230;2024-02-14T10:10:56;729.37;;;687.47;;
8580;SDS011;4328;48.622;9.230;2024-02-14T10:13:26;727.43;;;686.03;;
8580;SDS011;4328;48.622;9.230;2024-02-14T10:15:53;682.07;;;642.43;;
8580;SDS011;4328;48.622;9.230;2024-02-14T10:18:20;685.67;;;645.83;;
8580;SDS011;4328;48.622;9.230;2024-02-14T10:20:56;672.87;;;634.00;;
8580;SDS011;4328;48.622;9.230;2024-02-14T10:23:23;637.17;;;600.73;;
8580;SDS011;4328;48.622;9.230;2024-02-14T10:25:52;617.63;;;582.07;;
8580;SDS011;4328;48.622;9.230;2024-02-14T10:28:20;647.07;;;610.43;;
8580;SDS011;4328;48.622;9.230;2024-02-14T10:30:47;688.77;;;648.17;;
8580;SDS011;4328;48.622;9.230;2024-02-14T10:33:15;694.03;;;653.70;;
8580;SDS011;4328;48.622;9.230;2024-02-14T10:35:42;775.20;;;728.77;;
8580;SDS011;4328;48.622;9.230;2024-02-14T10:38:09;729.20;;;684.80;;
8580;SDS011;4328;48.622;9.230;2024-02-14T10:40:37;860.50;;;806.53;;
8580;SDS011;4328;48.622;9.230;2024-02-14T10:43:06;798.20;;;748.60;;
8580;SDS011;4328;48.622;9.230;2024-02-14T10:45:34;777.07;;;728.43;;
8580;SDS011;4328;48.622;9.230;2024-02-14T10:48:01;768.00;;;719.17;;
8580;SDS011;4328;48.622;9.230;2024-02-14T10:50:30;735.90;;;686.83;;
8580;SDS011;4328;48.622;9.230;2024-02-14T10:52:59;777.70;;;727.17;;
8580;SDS011;4328;48.622;9.230;2024-02-14T10:55:31;749.53;;;701.43;;
8580;SDS011;4328;48.622;9.230;2024-02-14T10:57:59;771.57;;;721.73;;
8580;SDS011;4328;48.622;9.230;2024-02-14T11:00:29;806.37;;;751.80;;
8580;SDS011;4328;48.622;9.230;2024-02-14T11:02:57;698.60;;;652.37;;
8580;SDS011;4328;48.622;9.230;2024-02-14T11:05:25;703.47;;;657.40;;
8580;SDS011;4328;48.622;9.230;2024-02-14T11:07:53;798.47;;;744.50;;
8580;SDS011;4328;48.622;9.230;2024-02-14T11:10:21;895.57;;;835.60;;
8580;SDS011;4328;48.622;9.230;2024-02-14T11:12:48;496.90;;;464.93;;
8580;SDS011;4328;48.622;9.230;2024-02-14T11:15:16;1027.13;;;957.40;;
8580;SDS011;4328;48.622;9.230;2024-02-14T11:17:45;953.47;;;889.57;;
8580;SDS011;4328;48.622;9.230;2024-02-14T11:20:15;951.73;;;889.10;;
8580;SDS011;4328;48.622;9.230;2024-02-14T11:22:55;911.67;;;852.27;;
8580;SDS011;4328;48.622;9.230;2024-02-14T11:25:23;905.37;;;846.73;;
8580;SDS011;4328;48.622;9.230;2024-02-14T11:27:55;861.77;;;807.20;;
8580;SDS011;4328;48.622;9.230;2024-02-14T11:30:28;922.17;;;865.03;;
8580;SDS011;4328;48.622;9.230;2024-02-14T11:33:09;937.23;;;879.50;;
8580;SDS011;4328;48.622;9.230;2024-02-14T11:35:40;912.10;;;855.80;;
8580;SDS011;4328;48.622;9.230;2024-02-14T11:38:07;911.23;;;855.43;;
8580;SDS011;4328;48.622;9.230;2024-02-14T11:40:34;903.40;;;847.77;;
8580;SDS011;4328;48.622;9.230;2024-02-14T11:43:01;887.73;;;833.57;;
8580;SDS011;4328;48.622;9.230;2024-02-14T11:45:27;843.30;;;791.87;;
8580;SDS011;4328;48.622;9.230;2024-02-14T11:47:54;854.27;;;802.80;;
8580;SDS011;4328;48.622;9.230;2024-02-14T11:50:22;839.93;;;790.40;;
8580;SDS011;4328;48.622;9.230;2024-02-14T11:52:49;845.67;;;794.57;;
8580;SDS011;4328;48.622;9.230;2024-02-14T11:55:17;822.23;;;773.43;;
8580;SDS011;4328;48.622;9.230;2024-02-14T11:57:44;823.27;;;774.73;;
8580;SDS011;4328;48.622;9.230;2024-02-14T12:00:13;804.60;;;755.80;;
8580;SDS011;4328;48.622;9.230;2024-02-14T12:02:40;830.57;;;780.97;;
8580;SDS011;4328;48.622;9.230;2024-02-14T12:05:07;841.47;;;791.50;;
8580;SDS011;4328;48.622;9.230;2024-02-14T12:07:35;866.50;;;814.93;;
8580;SDS011;4328;48.622;9.230;2024-02-14T12:10:03;874.40;;;822.10;;
8580;SDS011;4328;48.622;9.230;2024-02-14T12:12:31;894.50;;;840.27;;
8580;SDS011;4328;48.622;9.230;2024-02-14T12:14:58;1001.70;;;936.53;;
8580;SDS011;4328;48.622;9.230;2024-02-14T12:17:27;1075.97;;;998.60;;
8580;SDS011;4328;48.622;9.230;2024-02-14T12:20:04;1133.47;;;999.90;;
8580;SDS011;4328;48.622;9.230;2024-02-14T12:22:31;1157.33;;;999.90;;
8580;SDS011;4328;48.622;9.230;2024-02-14T12:24:59;1146.07;;;999.90;;
8580;SDS011;4328;48.622;9.230;2024-02-14T12:27:26;1114.43;;;999.90;;
8580;SDS011;4328;48.622;9.230;2024-02-14T12:29:53;1100.40;;;999.90;;
8580;SDS011;4328;48.622;9.230;2024-02-14T12:32:19;1087.77;;;999.90;;
8580;SDS011;4328;48.622;9.230;2024-02-14T12:34:46;1096.97;;;999.90;;
8580;SDS011;4328;48.622;9.230;2024-02-14T12:37:13;1095.80;;;999.90;;
8580;SDS011;4328;48.622;9.230;2024-02-14T12:39:40;1051.73;;;982.07;;
8580;SDS011;4328;48.622;9.230;2024-02-14T12:42:08;1067.97;;;995.97;;
8580;SDS011;4328;48.622;9.230;2024-02-14T12:44:35;1042.77;;;975.00;;
8580;SDS011;4328;48.622;9.230;2024-02-14T12:47:03;1050.37;;;976.77;;
8580;SDS011;4328;48.622;9.230;2024-02-14T12:49:30;1043.50;;;970.00;;
8580;SDS011;4328;48.622;9.230;2024-02-14T12:51:57;1030.27;;;958.50;;
8580;SDS011;4328;48.622;9.230;2024-02-14T12:54:23;1018.23;;;947.37;;
8580;SDS011;4328;48.622;9.230;2024-02-14T12:56:51;1018.90;;;948.10;;
8580;SDS011;4328;48.622;9.230;2024-02-14T12:59:19;1008.37;;;938.97;;
8580;SDS011;4328;48.622;9.230;2024-02-14T13:01:46;1033.07;;;962.00;;
8580;SDS011;4328;48.622;9.230;2024-02-14T13:04:12;870.17;;;815.73;;
8580;SDS011;4328;48.622;9.230;2024-02-14T13:06:41;828.47;;;777.40;;
8580;SDS011;4328;48.622;9.230;2024-02-14T13:09:08;988.83;;;913.83;;
8580;SDS011;4328;48.622;9.230;2024-02-14T13:11:35;956.73;;;888.03;;
8580;SDS011;4328;48.622;9.230;2024-02-14T13:14:02;957.30;;;889.00;;
8580;SDS011;4328;48.622;9.230;2024-02-14T13:16:31;954.20;;;893.93;;
8580;SDS011;4328;48.622;9.230;2024-02-14T13:18:57;929.17;;;865.10;;
8580;SDS011;4328;48.622;9.230;2024-02-14T13:21:24;919.43;;;858.27;;
8580;SDS011;4328;48.622;9.230;2024-02-14T13:23:51;910.67;;;849.47;;
8580;SDS011;4328;48.622;9.230;2024-02-14T13:26:17;918.47;;;860.97;;
8580;SDS011;4328;48.622;9.230;2024-02-14T13:28:44;900.40;;;843.87;;
8580;SDS011;4328;48.622;9.230;2024-02-14T13:31:10;911.10;;;854.30;;
8580;SDS011;4328;48.622;9.230;2024-02-14T13:33:38;851.87;;;799.17;;
8580;SDS011;4328;48.622;9.230;2024-02-14T13:36:05;883.07;;;829.73;;
8580;SDS011;4328;48.622;9.230;2024-02-14T13:38:32;860.47;;;808.77;;
8580;SDS011;4328;48.622;9.230;2024-02-14T13:40:59;886.50;;;832.83;;
8580;SDS011;4328;48.622;9.230;2024-02-14T13:43:25;880.60;;;827.43;;
8580;SDS011;4328;48.622;9.230;2024-02-14T13:45:52;891.90;;;837.77;;
8580;SDS011;4328;48.622;9.230;2024-02-14T13:48:19;865.33;;;813.43;;
8580;SDS011;4328;48.622;9.230;2024-02-14T13:50:47;881.93;;;828.10;;
8580;SDS011;4328;48.622;9.230;2024-02-14T13:53:14;894.67;;;838.07;;
8580;SDS011;4328;48.622;9.230;2024-02-14T13:55:41;885.03;;;828.87;;
8580;SDS011;4328;48.622;9.230;2024-02-14T13:58:08;877.47;;;820.50;;
8580;SDS011;4328;48.622;9.230;2024-02-14T14:00:40;870.70;;;816.80;;
8580;SDS011;4328;48.622;9.230;2024-02-14T14:03:06;850.43;;;796.73;;
8580;SDS011;4328;48.622;9.230;2024-02-14T14:05:33;844.00;;;788.80;;
8580;SDS011;4328;48.622;9.230;2024-02-14T14:08:01;839.83;;;785.17;;
8580;SDS011;4328;48.622;9.230;2024-02-14T14:10:28;816.13;;;763.33;;
8580;SDS011;4328;48.622;9.230;2024-02-14T14:12:55;806.83;;;753.53;;
8580;SDS011;4328;48.622;9.230;2024-02-14T14:15:21;801.67;;;748.87;;
8580;SDS011;4328;48.622;9.230;2024-02-14T14:17:48;814.80;;;758.70;;
8580;SDS011;4328;48.622;9.230;2024-02-14T14:20:15;807.57;;;753.23;;
8580;SDS011;4328;48.622;9.230;2024-02-14T14:22:41;799.37;;;744.23;;
8580;SDS011;4328;48.622;9.230;2024-02-14T14:25:09;785.23;;;730.63;;
8580;SDS011;4328;48.622;9.230;2024-02-14T14:27:36;799.40;;;744.17;;
8580;SDS011;4328;48.622;9.230;2024-02-14T14:30:04;775.63;;;721.47;;